Time;durP1;ratioP1;P1;durP2;ratioP2;P2;SDS_P1;SDS_P2;PMS_P1;PMS_P2;Temp;Humidity;BMP_temperature;BMP_pressure;BME280_temperature;BME280_humidity;BME280_pressure;Samples;Min_cycle;Max_cycle;Signal;HPM_P1;HPM_P2
2022/10/18 00:01:15;;;;;;;8.27;7.23;;;;;;;;;;5040015;28;20680;-74
2022/10/18 00:03:44;;;;;;;10.57;7.50;;;17.90;99.90;;;;;;5043333;28;20207;-74
2022/10/18 00:06:12;;;;;;;10.17;7.90;;;;;;;;;;5038540;28;20267;-74
2022/10/18 00:08:38;;;;;;;12.93;7.87;;;;;;;;;;5045574;28;20203;-74
2022/10/18 00:11:05;;;;;;;9.37;6.97;;;;;;;;;;5045208;28;20629;-74
2022/10/18 00:13:31;;;;;;;8.30;6.60;;;;;;;;;;5039973;28;20734;-74
2022/10/18 00:16:00;;;;;;;9.87;6.87;;;17.90;99.90;;;;;;5044060;28;20196;-74
2022/10/18 00:18:27;;;;;;;12.30;7.70;;;;;;;;;;5032277;28;20712;-74
2022/10/18 00:21:02;;;;;;;14.07;9.00;;;18.00;99.90;;;;;;5045745;28;20186;-74
2022/10/18 00:23:29;;;;;;;15.80;8.87;;;17.90;99.90;;;;;;5045028;28;20664;-74
2022/10/18 00:26:03;;;;;;;11.60;8.67;;;17.90;99.90;;;;;;5040987;28;20212;-74
2022/10/18 00:28:30;;;;;;;14.33;7.97;;;17.90;99.90;;;;;;5039479;28;20209;-74
2022/10/18 00:30:56;;;;;;;11.97;7.27;;;17.90;99.90;;;;;;5045052;28;20660;-74
2022/10/18 00:33:22;;;;;;;13.40;7.80;;;;;;;;;;5046161;28;20202;-74
2022/10/18 00:35:48;;;;;;;14.77;8.20;;;;;;;;;;5042897;28;20190;-74
2022/10/18 00:38:14;;;;;;;10.73;8.23;;;17.80;99.90;;;;;;5042263;28;20193;-74
2022/10/18 00:40:40;;;;;;;8.63;7.70;;;17.80;99.90;;;;;;5050991;28;20557;-74
2022/10/18 00:43:07;;;;;;;11.73;7.20;;;17.80;99.90;;;;;;5044236;28;20280;-75
2022/10/18 00:45:33;;;;;;;12.50;7.03;;;17.80;99.90;;;;;;5042796;28;20167;-74
2022/10/18 00:48:01;;;;;;;8.47;6.97;;;17.90;99.90;;;;;;5040707;28;20689;-74
2022/10/18 00:50:33;;;;;;;11.80;6.70;;;17.90;99.90;;;;;;5046295;28;20170;-74
2022/10/18 00:53:03;;;;;;;14.37;7.23;;;17.90;99.90;;;;;;5047654;28;20221;-74
2022/10/18 00:55:31;;;;;;;7.67;6.87;;;17.90;99.90;;;;;;5047475;28;20304;-74
2022/10/18 00:57:57;;;;;;;11.57;7.30;;;;;;;;;;5034849;28;20709;-74
2022/10/18 01:00:23;;;;;;;9.63;7.07;;;17.90;99.90;;;;;;5040767;28;20266;-74
2022/10/18 01:02:49;;;;;;;8.77;6.27;;;18.00;99.90;;;;;;5042014;28;20243;-74
2022/10/18 01:05:16;;;;;;;12.13;6.40;;;;;;;;;;5039843;28;20209;-74
2022/10/18 01:08:23;;;;;;;9.37;5.90;;;18.00;99.90;;;;;;5043257;28;20205;-74
2022/10/18 01:11:12;;;;;;;10.77;5.97;;;18.10;99.90;;;;;;5023515;28;20289;-74
2022/10/18 01:14:08;;;;;;;6.63;4.97;;;18.20;99.90;;;;;;5043918;28;20193;-74
2022/10/18 01:16:37;;;;;;;11.17;5.60;;;;;;;;;;5036869;28;20182;-74
2022/10/18 01:19:18;;;;;;;7.30;5.67;;;;;;;;;;5044063;28;20178;-74
2022/10/18 01:22:08;;;;;;;9.97;6.17;;;18.20;99.90;;;;;;5045209;28;21038;-74
2022/10/18 01:25:00;;;;;;;10.80;6.90;;;18.20;99.90;;;;;;5037159;28;20285;-74
2022/10/18 01:27:33;;;;;;;12.93;6.87;;;;;;;;;;5040389;28;20255;-74
2022/10/18 01:30:31;;;;;;;12.33;7.13;;;18.20;99.90;;;;;;5043836;28;20676;-75
2022/10/18 01:33:03;;;;;;;9.93;8.20;;;;;;;;;;5038719;28;20210;-74
2022/10/18 01:35:31;;;;;;;12.80;8.50;;;;;;;;;;5039240;28;20170;-74
2022/10/18 01:38:02;;;;;;;11.87;8.03;;;18.00;99.90;;;;;;5032671;28;20213;-74
2022/10/18 01:40:29;;;;;;;9.60;8.60;;;;;;;;;;5038834;28;20178;-74
2022/10/18 01:42:55;;;;;;;12.03;8.20;;;;;;;;;;5044676;28;20682;-74
2022/10/18 01:45:22;;;;;;;12.50;8.30;;;;;;;;;;5046013;28;20266;-74
2022/10/18 01:47:49;;;;;;;13.03;7.40;;;;;;;;;;5046097;28;20244;-74
2022/10/18 01:50:26;;;;;;;12.53;7.33;;;;;;;;;;5039810;28;20189;-74
2022/10/18 01:52:52;;;;;;;9.37;6.70;;;17.80;99.90;;;;;;5047032;28;20571;-74
2022/10/18 01:55:24;;;;;;;7.80;6.33;;;17.90;99.90;;;;;;5047431;28;20174;-74
2022/10/18 01:58:14;;;;;;;10.53;6.93;;;;;;;;;;5044614;28;20192;-74
2022/10/18 02:00:43;;;;;;;7.37;6.10;;;;;;;;;;5043205;28;20620;-74
2022/10/18 02:03:09;;;;;;;8.37;6.07;;;;;;;;;;5046252;28;20201;-74
2022/10/18 02:05:45;;;;;;;7.80;6.40;;;17.90;99.90;;;;;;5040473;28;20181;-75
2022/10/18 02:08:14;;;;;;;12.93;6.70;;;18.10;99.90;;;;;;5038641;28;20700;-74
2022/10/18 02:10:40;;;;;;;9.83;6.67;;;;;;;;;;5040717;28;20468;-74
2022/10/18 02:13:06;;;;;;;8.07;6.57;;;;;;;;;;5037426;28;20210;-74
2022/10/18 02:15:34;;;;;;;7.47;6.20;;;;;;;;;;5046796;28;20188;-74
2022/10/18 02:18:01;;;;;;;13.43;6.67;;;;;;;;;;5045957;28;20204;-75
2022/10/18 02:20:28;;;;;;;8.63;6.43;;;;;;;;;;5038482;28;20190;-74
2022/10/18 02:22:56;;;;;;;9.90;6.53;;;18.10;99.90;;;;;;5041222;28;20905;-74
2022/10/18 02:25:24;;;;;;;9.27;6.40;;;;;;;;;;5040577;28;20592;-74
2022/10/18 02:27:54;;;;;;;8.73;6.90;;;;;;;;;;5044928;28;20689;-74
2022/10/18 02:30:22;;;;;;;12.47;6.47;;;;;;;;;;5042047;28;20186;-74
2022/10/18 02:32:49;;;;;;;8.60;6.37;;;;;;;;;;5042914;28;20292;-75
2022/10/18 02:35:19;;;;;;;11.17;6.17;;;;;;;;;;5037681;28;20186;-74
2022/10/18 02:37:47;;;;;;;7.00;5.77;;;;;;;;;;5040269;28;20705;-75
2022/10/18 02:40:14;;;;;;;8.63;6.30;;;18.10;99.90;;;;;;5042601;28;20178;-74
2022/10/18 02:42:47;;;;;;;6.67;5.83;;;18.10;99.90;;;;;;5042285;28;20181;-74
2022/10/18 02:45:13;;;;;;;8.40;6.17;;;;;;;;;;5044798;28;20552;-75
2022/10/18 02:47:39;;;;;;;6.80;5.90;;;;;;;;;;5042985;28;20206;-74
2022/10/18 02:50:06;;;;;;;10.47;6.00;;;;;;;;;;5041056;28;20170;-74
2022/10/18 02:52:32;;;;;;;8.07;5.80;;;;;;;;;;5044507;28;20180;-74
2022/10/18 02:54:58;;;;;;;6.23;5.53;;;;;;;;;;5045433;28;20182;-74
2022/10/18 02:57:24;;;;;;;7.67;5.80;;;;;;;;;;5040843;28;20948;-74
2022/10/18 02:59:50;;;;;;;14.37;6.03;;;;;;;;;;5049131;28;20273;-74
2022/10/18 03:02:16;;;;;;;6.00;5.40;;;;;;;;;;5047817;28;20185;-74
2022/10/18 03:04:42;;;;;;;9.13;5.60;;;;;;;;;;5047205;28;20240;-74
2022/10/18 03:07:08;;;;;;;7.27;6.40;;;;;;;;;;5043293;28;20229;-74
2022/10/18 03:09:34;;;;;;;7.10;5.53;;;;;;;;;;5046580;28;20178;-74
2022/10/18 03:12:01;;;;;;;7.60;6.20;;;;;;;;;;5042431;28;20181;-74
2022/10/18 03:14:26;;;;;;;11.53;6.37;;;18.20;99.90;;;;;;5044694;28;20277;-74
2022/10/18 03:16:52;;;;;;;10.70;6.53;;;18.20;99.90;;;;;;5044413;28;20707;-74
2022/10/18 03:19:18;;;;;;;7.10;5.77;;;18.20;99.90;;;;;;5044124;28;20175;-75
2022/10/18 03:21:43;;;;;;;7.60;5.70;;;18.20;99.90;;;;;;5042942;28;20594;-74
2022/10/18 03:24:09;;;;;;;10.40;5.53;;;18.30;99.90;;;;;;5042324;28;20198;-74
2022/10/18 03:26:35;;;;;;;6.50;5.70;;;18.30;99.90;;;;;;5041058;28;20556;-74
2022/10/18 03:29:00;;;;;;;7.63;5.20;;;18.30;99.90;;;;;;5044293;28;20198;-74
2022/10/18 03:31:26;;;;;;;5.50;4.73;;;18.30;99.90;;;;;;5037807;28;20193;-75
2022/10/18 03:33:52;;;;;;;5.40;4.77;;;18.30;99.90;;;;;;5034691;28;20190;-75
2022/10/18 03:36:18;;;;;;;5.70;5.00;;;18.40;99.90;;;;;;5043383;28;20186;-74
2022/10/18 03:38:43;;;;;;;5.50;4.50;;;18.40;99.90;;;;;;5040186;28;20593;-75
2022/10/18 03:41:09;;;;;;;9.33;5.07;;;18.40;99.90;;;;;;5046998;28;20401;-74
2022/10/18 03:43:35;;;;;;;6.97;4.67;;;18.40;99.90;;;;;;5043488;28;20214;-74
2022/10/18 03:46:01;;;;;;;8.93;6.90;;;18.40;99.90;;;;;;5047009;28;20217;-74
2022/10/18 03:48:26;;;;;;;15.00;7.80;;;18.40;99.90;;;;;;5045045;28;20202;-74
2022/10/18 03:50:52;;;;;;;11.60;7.47;;;18.30;99.90;;;;;;5045276;28;20186;-74
2022/10/18 03:53:18;;;;;;;9.83;6.80;;;18.20;99.90;;;;;;5045824;28;20202;-74
2022/10/18 03:55:43;;;;;;;11.80;7.20;;;18.20;99.90;;;;;;5044280;28;20185;-75
2022/10/18 03:58:10;;;;;;;13.47;7.60;;;18.10;99.90;;;;;;5043018;28;20261;-74
2022/10/18 04:00:36;;;;;;;10.87;8.03;;;18.10;99.90;;;;;;5047713;28;20554;-74
2022/10/18 04:03:02;;;;;;;20.23;9.50;;;18.10;99.90;;;;;;5044266;28;20206;-74
2022/10/18 04:05:29;;;;;;;14.90;9.80;;;18.00;99.90;;;;;;5042608;28;20174;-75
2022/10/18 04:07:56;;;;;;;11.10;8.23;;;18.00;99.90;;;;;;5034713;28;20893;-74
2022/10/18 04:10:22;;;;;;;11.53;8.27;;;18.00;99.90;;;;;;5043884;28;20278;-75
2022/10/18 04:12:48;;;;;;;10.30;8.00;;;18.00;99.90;;;;;;5040412;28;20727;-75
2022/10/18 04:15:13;;;;;;;9.27;8.23;;;17.90;99.90;;;;;;5044635;28;20596;-74
2022/10/18 04:17:39;;;;;;;14.17;8.10;;;17.90;99.90;;;;;;5044553;28;20267;-74
2022/10/18 04:20:05;;;;;;;12.70;8.17;;;17.90;99.90;;;;;;5043568;28;20761;-74
2022/10/18 04:22:31;;;;;;;14.67;7.87;;;17.90;99.90;;;;;;5042524;28;20189;-74
2022/10/18 04:24:57;;;;;;;8.83;7.30;;;17.90;99.90;;;;;;5041614;28;20186;-74
2022/10/18 04:27:23;;;;;;;8.80;7.20;;;17.90;99.90;;;;;;5042958;28;20653;-74
2022/10/18 04:29:48;;;;;;;11.93;8.23;;;17.90;99.90;;;;;;5044950;28;20184;-74
2022/10/18 04:32:14;;;;;;;12.57;7.83;;;17.90;99.90;;;;;;5045209;28;20178;-74
2022/10/18 04:34:40;;;;;;;16.10;8.43;;;18.00;99.90;;;;;;5042682;28;20814;-74
2022/10/18 04:37:06;;;;;;;13.03;7.47;;;18.00;99.90;;;;;;5044668;28;20672;-75
2022/10/18 04:39:31;;;;;;;12.80;8.83;;;18.00;99.90;;;;;;5043111;28;20320;-74
2022/10/18 04:41:57;;;;;;;9.07;6.93;;;18.00;99.90;;;;;;5043682;28;20767;-74
2022/10/18 04:44:23;;;;;;;16.23;7.80;;;18.00;99.90;;;;;;5045281;28;20200;-74
2022/10/18 04:46:48;;;;;;;10.10;8.07;;;18.00;99.90;;;;;;5044676;28;20178;-74
2022/10/18 04:49:14;;;;;;;10.50;8.13;;;18.00;99.90;;;;;;5042267;28;20851;-74
2022/10/18 04:51:40;;;;;;;10.23;7.70;;;18.00;99.90;;;;;;5043009;28;20519;-74
2022/10/18 04:54:06;;;;;;;10.60;7.70;;;18.10;99.90;;;;;;5048275;28;20193;-74
2022/10/18 04:56:32;;;;;;;10.57;8.10;;;18.00;99.90;;;;;;5040491;28;20174;-74
2022/10/18 04:58:58;;;;;;;10.40;7.83;;;18.00;99.90;;;;;;5042099;28;20185;-74
2022/10/18 05:01:24;;;;;;;10.13;7.53;;;18.00;99.90;;;;;;5040386;28;20182;-74
2022/10/18 05:03:54;;;;;;;8.33;7.17;;;18.10;99.90;;;;;;5044104;28;20209;-74
2022/10/18 05:06:21;;;;;;;11.10;7.80;;;18.10;99.90;;;;;;5043025;28;20178;-74
2022/10/18 05:08:47;;;;;;;9.53;7.33;;;18.10;99.90;;;;;;5039139;28;20221;-74
2022/10/18 05:11:13;;;;;;;9.37;7.30;;;18.10;99.90;;;;;;5039565;28;20184;-74
2022/10/18 05:13:38;;;;;;;9.53;7.40;;;18.10;99.90;;;;;;5043709;28;20198;-74
2022/10/18 05:16:05;;;;;;;9.10;7.17;;;18.10;99.90;;;;;;5042121;28;20186;-74
2022/10/18 05:18:31;;;;;;;9.33;6.90;;;18.20;99.90;;;;;;5040791;28;20213;-74
2022/10/18 05:20:57;;;;;;;10.73;7.30;;;18.20;99.90;;;;;;5045699;28;20227;-74
2022/10/18 05:23:23;;;;;;;8.43;7.10;;;18.20;99.90;;;;;;5040663;28;20202;-74
2022/10/18 05:25:49;;;;;;;11.30;6.80;;;18.20;99.90;;;;;;5045001;28;20219;-74
2022/10/18 05:28:15;;;;;;;11.13;7.60;;;18.20;99.90;;;;;;5045092;28;20874;-74
2022/10/18 05:30:41;;;;;;;11.43;8.70;;;18.10;99.90;;;;;;5040005;28;20342;-74
2022/10/18 05:33:08;;;;;;;11.30;8.60;;;18.10;99.90;;;;;;5037971;28;20640;-74
2022/10/18 05:35:34;;;;;;;12.17;7.87;;;18.10;99.90;;;;;;5037687;28;20185;-74
2022/10/18 05:38:04;;;;;;;10.73;7.60;;;18.10;99.90;;;;;;5045654;28;20654;-74
2022/10/18 05:40:31;;;;;;;11.67;7.10;;;18.10;99.90;;;;;;5043766;28;20212;-74
2022/10/18 05:42:57;;;;;;;10.03;7.60;;;18.10;99.90;;;;;;5042465;28;20814;-76
2022/10/18 05:45:23;;;;;;;12.00;7.73;;;18.10;99.90;;;;;;5041146;28;20186;-75
2022/10/18 05:47:48;;;;;;;8.23;6.87;;;18.00;99.90;;;;;;5044231;28;20201;-75
2022/10/18 05:50:14;;;;;;;9.63;6.80;;;18.10;99.90;;;;;;5045336;28;20265;-76
2022/10/18 05:52:40;;;;;;;8.97;6.83;;;18.10;99.90;;;;;;5044814;28;20182;-75
2022/10/18 05:55:06;;;;;;;7.97;7.17;;;18.10;99.90;;;;;;5037905;28;20174;-75
2022/10/18 05:57:32;;;;;;;10.00;6.80;;;18.00;99.90;;;;;;5042989;28;20236;-75
2022/10/18 05:59:58;;;;;;;9.90;6.57;;;18.00;99.90;;;;;;5040941;28;20186;-75
2022/10/18 06:02:23;;;;;;;13.27;7.50;;;18.00;99.90;;;;;;5044840;28;20712;-75
2022/10/18 06:04:49;;;;;;;12.33;7.60;;;18.00;99.90;;;;;;5043597;28;20278;-75
2022/10/18 06:07:15;;;;;;;8.00;7.20;;;18.00;99.90;;;;;;5042834;28;20213;-75
2022/10/18 06:09:41;;;;;;;9.93;7.20;;;18.00;99.90;;;;;;5040008;28;20178;-76
2022/10/18 06:12:07;;;;;;;12.37;7.87;;;18.00;99.90;;;;;;5035144;28;20634;-75
2022/10/18 06:14:35;;;;;;;10.70;7.30;;;18.00;99.90;;;;;;5035613;28;20202;-75
2022/10/18 06:17:00;;;;;;;10.23;6.97;;;18.00;99.90;;;;;;5037523;28;20178;-76
2022/10/18 06:19:31;;;;;;;10.33;7.60;;;17.90;99.90;;;;;;5032429;28;20184;-75
2022/10/18 06:21:57;;;;;;;9.83;7.07;;;17.90;99.90;;;;;;5032572;28;20182;-76
2022/10/18 06:24:23;;;;;;;11.23;7.10;;;18.00;99.90;;;;;;5035496;28;20194;-76
2022/10/18 06:26:48;;;;;;;11.90;7.07;;;18.00;99.90;;;;;;5032106;28;20190;-76
2022/10/18 06:29:14;;;;;;;11.20;6.93;;;18.00;99.90;;;;;;5039525;28;20216;-76
2022/10/18 06:31:40;;;;;;;12.00;7.43;;;18.00;99.90;;;;;;5035780;28;20169;-76
2022/10/18 06:34:06;;;;;;;8.73;7.47;;;18.10;99.90;;;;;;5040233;28;20203;-76
2022/10/18 06:36:32;;;;;;;8.43;7.40;;;18.10;99.90;;;;;;5042214;28;20236;-76
2022/10/18 06:38:58;;;;;;;10.33;7.10;;;18.10;99.90;;;;;;5033002;28;20186;-75
2022/10/18 06:41:24;;;;;;;10.97;7.97;;;18.10;99.90;;;;;;5037034;28;20307;-75
2022/10/18 06:43:52;;;;;;;8.43;7.10;;;18.00;99.90;;;;;;5036371;28;20655;-75
2022/10/18 06:46:18;;;;;;;10.50;8.10;;;18.00;99.90;;;;;;5038928;28;20182;-75
2022/10/18 06:48:44;;;;;;;10.23;7.43;;;18.10;99.90;;;;;;5041702;28;20267;-75
2022/10/18 06:51:10;;;;;;;13.73;7.17;;;18.10;99.90;;;;;;5036043;28;20714;-75
2022/10/18 06:53:38;;;;;;;11.40;7.33;;;18.10;99.90;;;;;;5036617;28;20206;-75
2022/10/18 06:56:12;;;;;;;11.07;7.90;;;18.10;99.90;;;;;;5036819;28;20427;-75
2022/10/18 06:58:38;;;;;;;9.87;7.80;;;18.10;99.90;;;;;;5038668;28;20666;-75
2022/10/18 07:01:09;;;;;;;8.30;7.40;;;18.10;99.90;;;;;;5042997;28;20182;-75
2022/10/18 07:03:35;;;;;;;12.97;7.90;;;18.10;99.90;;;;;;5037814;28;20738;-75
2022/10/18 07:06:03;;;;;;;9.53;8.40;;;18.10;99.90;;;;;;5036517;28;20213;-75
2022/10/18 07:08:29;;;;;;;12.70;8.27;;;18.10;99.90;;;;;;5038144;28;20285;-75
2022/10/18 07:10:55;;;;;;;10.27;7.83;;;18.20;99.90;;;;;;5047922;28;20209;-75
2022/10/18 07:13:21;;;;;;;10.63;8.73;;;18.20;99.90;;;;;;5043450;28;20233;-75
2022/10/18 07:15:47;;;;;;;11.77;8.67;;;18.20;99.90;;;;;;5037539;28;20187;-74
2022/10/18 07:18:13;;;;;;;12.43;8.40;;;18.20;99.90;;;;;;5037145;28;20179;-75
2022/10/18 07:20:39;;;;;;;11.30;8.17;;;18.10;99.90;;;;;;5038405;28;20193;-76
2022/10/18 07:23:07;;;;;;;12.23;8.60;;;18.10;99.90;;;;;;5037861;28;20568;-76
2022/10/18 07:25:33;;;;;;;11.50;8.30;;;18.00;99.90;;;;;;5038872;28;20683;-76
2022/10/18 07:28:00;;;;;;;14.03;8.10;;;18.00;99.90;;;;;;5039179;28;20230;-76
2022/10/18 07:30:26;;;;;;;11.17;8.13;;;18.00;99.90;;;;;;5037398;28;20268;-76
2022/10/18 07:32:51;;;;;;;11.40;8.93;;;17.90;99.90;;;;;;5038788;28;20194;-76
2022/10/18 07:35:17;;;;;;;15.30;8.67;;;18.00;99.90;;;;;;5039489;28;20166;-76
2022/10/18 07:37:43;;;;;;;12.83;8.87;;;18.00;99.90;;;;;;5039049;28;20181;-76
2022/10/18 07:40:10;;;;;;;10.17;8.33;;;18.00;99.90;;;;;;5038415;28;20551;-76
2022/10/18 07:42:37;;;;;;;15.07;9.23;;;18.00;99.90;;;;;;5041327;28;20695;-77
2022/10/18 07:45:03;;;;;;;14.63;8.70;;;18.00;99.90;;;;;;5040427;28;20182;-78
2022/10/18 07:47:29;;;;;;;11.63;9.03;;;18.10;99.90;;;;;;5037262;28;20292;-79
2022/10/18 07:49:55;;;;;;;12.17;9.30;;;18.00;99.90;;;;;;5041501;28;20181;-75
2022/10/18 07:52:21;;;;;;;9.40;8.40;;;18.10;99.90;;;;;;5038706;28;20201;-77
2022/10/18 07:54:46;;;;;;;11.53;9.00;;;18.10;99.90;;;;;;5039546;28;20289;-74
2022/10/18 07:57:12;;;;;;;10.60;8.40;;;18.10;99.90;;;;;;5037768;28;20224;-75
2022/10/18 07:59:38;;;;;;;13.23;9.13;;;18.20;99.90;;;;;;5039229;28;20849;-75
2022/10/18 08:02:04;;;;;;;12.60;8.90;;;18.20;99.90;;;;;;5038322;28;20189;-75
2022/10/18 08:04:29;;;;;;;14.17;9.20;;;18.20;99.90;;;;;;5037324;28;20771;-74
2022/10/18 08:06:55;;;;;;;10.20;8.03;;;18.30;99.90;;;;;;5037705;28;20197;-75
2022/10/18 08:09:21;;;;;;;11.53;8.17;;;18.30;99.90;;;;;;5037091;28;20224;-76
2022/10/18 08:11:47;;;;;;;8.40;7.50;;;18.30;99.90;;;;;;5038820;28;20666;-75
2022/10/18 08:14:12;;;;;;;9.40;8.17;;;18.30;99.90;;;;;;5041151;28;20568;-76
2022/10/18 08:16:38;;;;;;;11.57;8.20;;;18.40;99.90;;;;;;5037358;28;20793;-76
2022/10/18 08:19:04;;;;;;;12.70;8.57;;;18.40;99.90;;;;;;5043052;28;20697;-74
2022/10/18 08:21:29;;;;;;;10.63;7.80;;;18.40;99.90;;;;;;5032186;28;20186;-75
2022/10/18 08:23:55;;;;;;;10.07;8.47;;;18.40;99.90;;;;;;5028869;28;20234;-75
2022/10/18 08:26:22;;;;;;;13.00;7.57;;;18.40;99.90;;;;;;5038477;28;20182;-75
2022/10/18 08:28:49;;;;;;;12.63;7.83;;;18.50;99.90;;;;;;5041974;28;20259;-75
2022/10/18 08:31:17;;;;;;;10.33;7.87;;;18.50;99.90;;;;;;5048277;28;20178;-74
2022/10/18 08:33:43;;;;;;;10.63;8.07;;;18.40;99.90;;;;;;5048518;28;20244;-76
2022/10/18 08:36:12;;;;;;;13.07;9.00;;;18.40;99.90;;;;;;5048200;28;20531;-75
2022/10/18 08:38:39;;;;;;;10.20;7.60;;;18.40;99.90;;;;;;5046268;28;20217;-75
2022/10/18 08:41:33;;;;;;;10.40;8.10;;;18.50;99.90;;;;;;5044028;28;20178;-75
2022/10/18 08:44:11;;;;;;;11.23;8.13;;;18.50;99.90;;;;;;5044669;28;20286;-75
2022/10/18 08:46:45;;;;;;;9.10;7.27;;;18.60;99.90;;;;;;5036056;28;20281;-75
2022/10/18 08:49:27;;;;;;;12.23;8.37;;;18.70;99.90;;;;;;5012290;28;20237;-76
2022/10/18 08:51:54;;;;;;;11.63;8.10;;;18.80;99.90;;;;;;5034229;28;20253;-75
2022/10/18 08:54:47;;;;;;;11.27;8.50;;;18.90;99.90;;;;;;5037833;28;20255;-75
2022/10/18 08:57:17;;;;;;;12.47;8.27;;;19.10;99.90;;;;;;5037739;28;20664;-75
2022/10/18 08:59:43;;;;;;;14.53;8.37;;;19.10;99.90;;;;;;5037168;28;20301;-75
2022/10/18 09:02:27;;;;;;;10.60;8.00;;;19.20;99.90;;;;;;5037735;28;20186;-75
2022/10/18 09:04:55;;;;;;;9.03;7.37;;;19.20;99.90;;;;;;5039751;28;20193;-75
2022/10/18 09:07:58;;;;;;;13.03;7.60;;;19.30;99.90;;;;;;5037284;28;20202;-75
2022/10/18 09:10:50;;;;;;;12.23;7.77;;;19.20;99.90;;;;;;5037982;28;20729;-76
2022/10/18 09:13:52;;;;;;;10.73;7.70;;;19.20;99.90;;;;;;5035636;28;20205;-75
2022/10/18 09:16:32;;;;;;;11.70;8.30;;;19.10;99.90;;;;;;5036934;28;20261;-75
2022/10/18 09:19:22;;;;;;;11.90;8.23;;;19.00;99.90;;;;;;5034721;28;20724;-76
2022/10/18 09:21:51;;;;;;;11.33;8.37;;;18.90;99.90;;;;;;5038406;28;21040;-75
2022/10/18 09:24:26;;;;;;;13.87;8.40;;;18.90;99.90;;;;;;5037598;28;20285;-75
2022/10/18 09:26:59;;;;;;;12.23;7.70;;;18.90;99.90;;;;;;5035993;28;20216;-75
2022/10/18 09:29:43;;;;;;;9.63;8.27;;;19.00;99.90;;;;;;5038669;28;22229;-76
2022/10/18 09:32:37;;;;;;;13.23;8.60;;;19.10;99.90;;;;;;5036685;28;20190;-78
2022/10/18 09:35:23;;;;;;;11.83;8.97;;;19.30;99.90;;;;;;5035554;28;20210;-76
2022/10/18 09:37:52;;;;;;;10.47;7.70;;;19.50;99.90;;;;;;5038188;28;20185;-76
2022/10/18 09:40:23;;;;;;;10.83;8.20;;;19.60;99.90;;;;;;5036911;28;20181;-76
2022/10/18 09:43:01;;;;;;;13.63;7.90;;;19.60;99.90;;;;;;5037217;28;20595;-76
2022/10/18 09:45:36;;;;;;;15.20;8.83;;;19.70;99.90;;;;;;5036328;28;20801;-77
2022/10/18 09:48:36;;;;;;;11.50;8.67;;;19.80;99.90;;;;;;5039099;28;20209;-76
2022/10/18 09:51:16;;;;;;;11.20;9.10;;;19.90;99.90;;;;;;5041881;28;20177;-76
2022/10/18 09:54:04;;;;;;;11.50;9.10;;;20.00;99.90;;;;;;5038498;28;20201;-76
2022/10/18 09:56:48;;;;;;;11.50;8.60;;;20.00;99.90;;;;;;5037782;28;20166;-76
2022/10/18 09:59:28;;;;;;;9.90;8.37;;;20.10;99.90;;;;;;5035684;28;20582;-76
2022/10/18 10:01:54;;;;;;;10.30;7.90;;;20.30;99.90;;;;;;5037440;28;20184;-76
2022/10/18 10:04:20;;;;;;;8.90;8.00;;;20.30;99.90;;;;;;5045237;28;20201;-76
2022/10/18 10:06:51;;;;;;;13.40;8.30;;;20.30;99.90;;;;;;5042994;28;20277;-76
2022/10/18 10:09:25;;;;;;;10.77;7.57;;;20.30;99.90;;;;;;5039985;28;20861;-76
2022/10/18 10:11:51;;;;;;;12.10;8.03;;;20.50;99.90;;;;;;5041617;28;20182;-76
2022/10/18 10:14:25;;;;;;;10.13;8.20;;;20.60;99.90;;;;;;5040235;28;20189;-76
2022/10/18 10:16:53;;;;;;;11.60;8.50;;;20.70;99.90;;;;;;5040710;28;21342;-76
2022/10/18 10:19:32;;;;;;;11.53;8.67;;;20.70;99.90;;;;;;5038332;28;20183;-76
2022/10/18 10:22:02;;;;;;;11.03;7.27;;;20.80;99.90;;;;;;5040648;28;20185;-76
2022/10/18 10:24:49;;;;;;;11.57;7.80;;;20.80;99.90;;;;;;5039509;28;20220;-76
2022/10/18 10:27:30;;;;;;;10.47;7.50;;;20.90;99.90;;;;;;5038411;28;20255;-76
2022/10/18 10:29:58;;;;;;;13.93;7.17;;;21.00;99.90;;;;;;5040516;28;20178;-76
2022/10/18 10:32:28;;;;;;;10.23;7.83;;;21.10;99.90;;;;;;5038654;28;20167;-76
2022/10/18 10:34:54;;;;;;;10.43;7.57;;;21.10;99.90;;;;;;5039264;28;20200;-76
2022/10/18 10:37:30;;;;;;;9.87;7.50;;;21.10;99.90;;;;;;5038210;28;20174;-76
2022/10/18 10:40:23;;;;;;;11.67;8.23;;;21.20;99.90;;;;;;5039552;28;20269;-76
2022/10/18 10:43:02;;;;;;;11.60;8.53;;;21.20;99.90;;;;;;5038719;28;20185;-76
2022/10/18 10:45:35;;;;;;;10.27;8.20;;;21.30;99.90;;;;;;5039335;28;20181;-76
2022/10/18 10:48:05;;;;;;;14.10;10.07;;;21.40;99.90;;;;;;5041101;28;20189;-76
2022/10/18 10:50:45;;;;;;;14.97;10.83;;;21.40;99.90;;;;;;5039656;28;20701;-76
2022/10/18 10:53:29;;;;;;;13.57;10.20;;;21.40;99.90;;;;;;5039175;28;20226;-76
2022/10/18 10:55:57;;;;;;;13.87;10.77;;;21.40;99.90;;;;;;5038366;28;20266;-76
2022/10/18 10:58:26;;;;;;;16.83;12.07;;;21.30;99.90;;;;;;5045573;28;20228;-76
2022/10/18 11:00:51;;;;;;;12.40;10.77;;;21.20;99.90;;;;;;5039841;28;20192;-77
2022/10/18 11:03:20;;;;;;;13.77;10.80;;;21.00;99.90;;;;;;5042489;28;20201;-78
2022/10/18 11:05:52;;;;;;;13.80;11.13;;;20.90;99.90;;;;;;5040528;28;20766;-77
2022/10/18 11:08:40;;;;;;;15.47;11.60;;;20.80;99.90;;;;;;5040782;28;20690;-79
2022/10/18 11:11:40;;;;;;;11.27;9.87;;;20.80;99.90;;;;;;5041358;28;20195;-76
2022/10/18 11:14:28;;;;;;;14.63;10.87;;;20.70;99.90;;;;;;5039388;28;20936;-78
2022/10/18 11:17:22;;;;;;;12.37;9.13;;;20.60;99.90;;;;;;5041284;28;20184;-78
2022/10/18 11:20:09;;;;;;;12.87;11.43;;;20.60;99.90;;;;;;5040730;28;20639;-78
2022/10/18 11:22:58;;;;;;;13.20;10.67;;;20.60;99.90;;;;;;5038113;28;20198;-83
2022/10/18 11:25:45;;;;;;;16.00;10.40;;;20.50;99.90;;;;;;5059295;28;20191;-76
2022/10/18 11:28:29;;;;;;;16.30;10.90;;;20.50;99.90;;;;;;5043959;28;20376;-79
2022/10/18 11:31:23;;;;;;;12.67;10.40;;;20.50;99.90;;;;;;5041641;28;20166;-81
2022/10/18 11:34:18;;;;;;;12.90;10.63;;;20.50;99.90;;;;;;5039015;28;20678;-79
2022/10/18 11:36:57;;;;;;;13.80;10.17;;;20.40;99.90;;;;;;5021310;28;20526;-79
2022/10/18 11:39:33;;;;;;;12.50;11.20;;;20.40;99.90;;;;;;5042137;28;20182;-79
2022/10/18 11:42:38;;;;;;;15.23;12.03;;;20.40;99.90;;;;;;5039622;28;20360;-79
2022/10/18 11:45:09;;;;;;;13.30;10.97;;;20.40;99.90;;;;;;5039678;28;20189;-79
2022/10/18 11:47:38;;;;;;;12.77;10.97;;;20.40;99.90;;;;;;5043395;28;20198;-78
2022/10/18 11:50:39;;;;;;;13.83;11.93;;;20.40;99.90;;;;;;5045539;28;20708;-79
2022/10/18 11:53:25;;;;;;;13.67;9.97;;;20.40;99.90;;;;;;5044000;28;20202;-82
2022/10/18 11:56:36;;;;;;;13.77;11.20;;;20.40;99.90;;;;;;5045268;28;20193;-83
2022/10/18 11:59:31;;;;;;;16.37;11.23;;;20.40;99.90;;;;;;5041198;28;20188;-84
2022/10/18 12:02:13;;;;;;;13.30;11.87;;;20.40;99.90;;;;;;5042403;28;20178;-80
2022/10/18 12:04:59;;;;;;;13.00;11.37;;;20.30;99.90;;;;;;5043234;28;20205;-83
2022/10/18 12:07:31;;;;;;;19.20;13.27;;;20.30;99.90;;;;;;5043018;28;20247;-82
2022/10/18 12:09:59;;;;;;;16.90;14.27;;;20.40;99.90;;;;;;5042159;28;20186;-80
2022/10/18 12:12:35;;;;;;;16.77;12.83;;;20.40;99.90;;;;;;5045420;28;20181;-77
2022/10/18 12:15:15;;;;;;;15.53;12.03;;;20.30;99.90;;;;;;5045192;28;20194;-78
2022/10/18 12:17:49;;;;;;;81.57;47.93;;;20.40;99.90;;;;;;5044400;28;20181;-80
2022/10/18 12:20:45;;;;;;;49.00;32.20;;;20.30;99.90;;;;;;5040957;28;20266;-78
2022/10/18 12:23:15;;;;;;;34.63;23.90;;;20.30;99.90;;;;;;5046495;28;20202;-77
2022/10/18 12:25:46;;;;;;;53.57;36.17;;;20.30;99.90;;;;;;5048589;28;20505;-78
2022/10/18 12:28:46;;;;;;;37.80;25.47;;;20.20;99.90;;;;;;5051293;28;20216;-77
2022/10/18 12:31:26;;;;;;;24.37;18.33;;;20.20;99.90;;;;;;5040343;28;20228;-77
2022/10/18 12:33:57;;;;;;;18.90;14.17;;;20.10;99.90;;;;;;5047967;28;20589;-78
2022/10/18 12:36:41;;;;;;;18.83;13.00;;;20.10;99.90;;;;;;5045562;28;20666;-77
2022/10/18 12:39:36;;;;;;;16.27;12.47;;;20.00;99.90;;;;;;5044713;28;20183;-78
2022/10/18 12:42:02;;;;;;;16.07;14.43;;;20.00;99.90;;;;;;5050314;28;20182;-77
2022/10/18 12:44:33;;;;;;;17.03;13.63;;;19.90;99.90;;;;;;5044454;28;20201;-78
2022/10/18 12:47:04;;;;;;;20.37;14.90;;;19.90;99.90;;;;;;5051966;28;20173;-76
2022/10/18 12:49:36;;;;;;;16.47;14.03;;;19.90;99.90;;;;;;5053025;28;20206;-80
2022/10/18 12:52:19;;;;;;;16.87;14.97;;;19.80;99.90;;;;;;5052014;28;20709;-78
2022/10/18 12:55:26;;;;;;;17.03;14.10;;;19.80;99.90;;;;;;5052671;28;20716;-75
2022/10/18 12:57:52;;;;;;;18.97;14.03;;;19.70;99.90;;;;;;5050368;28;20196;-77
2022/10/18 13:00:40;;;;;;;14.73;12.77;;;19.80;99.90;;;;;;5051316;28;20185;-78
2022/10/18 13:03:09;;;;;;;15.40;13.40;;;20.00;99.90;;;;;;5040628;28;20214;-78
2022/10/18 13:06:04;;;;;;;17.27;15.47;;;20.10;99.90;;;;;;5049151;28;20178;-79
2022/10/18 13:08:30;;;;;;;16.87;14.03;;;20.30;99.90;;;;;;5030493;28;20590;-79
2022/10/18 13:11:11;;;;;;;16.73;14.33;;;20.50;99.90;;;;;;5047515;28;20178;-78
2022/10/18 13:13:55;;;;;;;18.17;15.23;;;20.50;99.90;;;;;;5039788;28;20303;-79
2022/10/18 13:16:21;;;;;;;22.13;18.00;;;20.40;99.90;;;;;;5039376;28;20174;-79